sensor_id;sensor_type;location;lat;lon;timestamp;temperature;humidity
41678;DHT22;27364;49.026;8.712;2023-06-14T00:00:17;14.70;90.10
41678;DHT22;27364;49.026;8.712;2023-06-14T00:02:43;14.70;91.00
41678;DHT22;27364;49.026;8.712;2023-06-14T00:05:08;14.70;91.60
41678;DHT22;27364;49.026;8.712;2023-06-14T00:07:39;14.60;92.00
41678;DHT22;27364;49.026;8.712;2023-06-14T00:10:08;14.60;92.10
41678;DHT22;27364;49.026;8.712;2023-06-14T00:12:34;14.40;92.70
41678;DHT22;27364;49.026;8.712;2023-06-14T00:15:00;14.30;93.10
41678;DHT22;27364;49.026;8.712;2023-06-14T00:17:29;14.30;92.90
41678;DHT22;27364;49.026;8.712;2023-06-14T00:19:58;14.30;92.80
41678;DHT22;27364;49.026;8.712;2023-06-14T00:22:24;14.20;92.80
41678;DHT22;27364;49.026;8.712;2023-06-14T00:24:50;14.20;92.70
41678;DHT22;27364;49.026;8.712;2023-06-14T00:27:16;14.20;92.60
41678;DHT22;27364;49.026;8.712;2023-06-14T00:29:42;14.10;92.60
41678;DHT22;27364;49.026;8.712;2023-06-14T00:32:10;14.20;92.40
41678;DHT22;27364;49.026;8.712;2023-06-14T00:34:36;14.10;92.50
41678;DHT22;27364;49.026;8.712;2023-06-14T00:37:02;14.10;92.60
41678;DHT22;27364;49.026;8.712;2023-06-14T00:39:27;14.20;92.50
41678;DHT22;27364;49.026;8.712;2023-06-14T00:41:53;14.10;92.40
41678;DHT22;27364;49.026;8.712;2023-06-14T00:44:18;14.10;92.50
41678;DHT22;27364;49.026;8.712;2023-06-14T00:46:47;14.10;92.70
41678;DHT22;27364;49.026;8.712;2023-06-14T00:49:14;14.10;92.50
41678;DHT22;27364;49.026;8.712;2023-06-14T00:51:41;14.10;92.90
41678;DHT22;27364;49.026;8.712;2023-06-14T00:54:07;14.10;93.00
41678;DHT22;27364;49.026;8.712;2023-06-14T00:56:35;14.10;93.20
41678;DHT22;27364;49.026;8.712;2023-06-14T00:59:02;14.10;93.20
41678;DHT22;27364;49.026;8.712;2023-06-14T01:01:28;14.00;93.30
41678;DHT22;27364;49.026;8.712;2023-06-14T01:03:58;14.00;93.60
41678;DHT22;27364;49.026;8.712;2023-06-14T01:06:45;13.90;93.80
41678;DHT22;27364;49.026;8.712;2023-06-14T01:09:25;13.80;93.90
41678;DHT22;27364;49.026;8.712;2023-06-14T01:14:46;13.90;94.50
41678;DHT22;27364;49.026;8.712;2023-06-14T01:17:12;13.90;93.90
41678;DHT22;27364;49.026;8.712;2023-06-14T01:19:45;13.90;93.90
41678;DHT22;27364;49.026;8.712;2023-06-14T01:22:11;13.80;94.00
41678;DHT22;27364;49.026;8.712;2023-06-14T01:24:36;13.90;94.40
41678;DHT22;27364;49.026;8.712;2023-06-14T01:27:04;13.80;94.60
41678;DHT22;27364;49.026;8.712;2023-06-14T01:29:31;13.80;94.30
41678;DHT22;27364;49.026;8.712;2023-06-14T01:32:01;13.80;94.40
41678;DHT22;27364;49.026;8.712;2023-06-14T01:34:27;13.80;94.50
41678;DHT22;27364;49.026;8.712;2023-06-14T01:36:53;13.70;94.80
41678;DHT22;27364;49.026;8.712;2023-06-14T01:39:22;13.70;95.30
41678;DHT22;27364;49.026;8.712;2023-06-14T01:41:49;13.70;95.10
41678;DHT22;27364;49.026;8.712;2023-06-14T01:44:16;13.70;95.30
41678;DHT22;27364;49.026;8.712;2023-06-14T01:46:43;13.70;96.10
41678;DHT22;27364;49.026;8.712;2023-06-14T01:49:09;13.70;97.00
41678;DHT22;27364;49.026;8.712;2023-06-14T01:51:34;13.50;97.70
41678;DHT22;27364;49.026;8.712;2023-06-14T01:54:00;13.40;98.60
41678;DHT22;27364;49.026;8.712;2023-06-14T01:56:26;13.30;98.30
41678;DHT22;27364;49.026;8.712;2023-06-14T01:58:52;13.30;98.00
41678;DHT22;27364;49.026;8.712;2023-06-14T02:01:19;13.30;98.40
41678;DHT22;27364;49.026;8.712;2023-06-14T02:03:46;13.30;98.60
41678;DHT22;27364;49.026;8.712;2023-06-14T02:06:12;13.30;98.20
41678;DHT22;27364;49.026;8.712;2023-06-14T02:08:39;13.30;98.40
41678;DHT22;27364;49.026;8.712;2023-06-14T02:11:05;13.30;98.50
41678;DHT22;27364;49.026;8.712;2023-06-14T02:13:30;13.30;98.40
41678;DHT22;27364;49.026;8.712;2023-06-14T02:15:56;13.20;98.70
41678;DHT22;27364;49.026;8.712;2023-06-14T02:18:23;13.30;98.50
41678;DHT22;27364;49.026;8.712;2023-06-14T02:20:48;13.30;98.30
41678;DHT22;27364;49.026;8.712;2023-06-14T02:23:14;13.20;98.20
41678;DHT22;27364;49.026;8.712;2023-06-14T02:25:40;13.30;98.30
41678;DHT22;27364;49.026;8.712;2023-06-14T02:28:05;13.20;98.50
41678;DHT22;27364;49.026;8.712;2023-06-14T02:30:31;13.30;98.10
41678;DHT22;27364;49.026;8.712;2023-06-14T02:32:56;13.20;98.10
41678;DHT22;27364;49.026;8.712;2023-06-14T02:35:22;13.30;98.00
41678;DHT22;27364;49.026;8.712;2023-06-14T02:37:52;13.20;98.00
41678;DHT22;27364;49.026;8.712;2023-06-14T02:40:18;13.30;98.20
41678;DHT22;27364;49.026;8.712;2023-06-14T02:42:43;13.30;98.80
41678;DHT22;27364;49.026;8.712;2023-06-14T02:45:09;13.20;99.40
41678;DHT22;27364;49.026;8.712;2023-06-14T02:47:34;13.10;99.30
41678;DHT22;27364;49.026;8.712;2023-06-14T02:50:00;13.10;99.60
41678;DHT22;27364;49.026;8.712;2023-06-14T02:52:26;13.00;99.90
41678;DHT22;27364;49.026;8.712;2023-06-14T02:54:51;13.00;99.70
41678;DHT22;27364;49.026;8.712;2023-06-14T02:57:17;13.10;99.80
41678;DHT22;27364;49.026;8.712;2023-06-14T02:59:42;13.10;99.80
41678;DHT22;27364;49.026;8.712;2023-06-14T03:02:08;13.00;99.90
41678;DHT22;27364;49.026;8.712;2023-06-14T03:04:34;13.00;99.90
41678;DHT22;27364;49.026;8.712;2023-06-14T03:07:02;12.90;99.90
41678;DHT22;27364;49.026;8.712;2023-06-14T03:09:35;13.00;99.90
41678;DHT22;27364;49.026;8.712;2023-06-14T03:12:01;13.00;99.90
41678;DHT22;27364;49.026;8.712;2023-06-14T03:14:28;13.00;99.90
41678;DHT22;27364;49.026;8.712;2023-06-14T03:16:54;13.00;99.90
41678;DHT22;27364;49.026;8.712;2023-06-14T03:19:22;13.00;99.90
41678;DHT22;27364;49.026;8.712;2023-06-14T03:21:48;13.00;99.90
41678;DHT22;27364;49.026;8.712;2023-06-14T03:24:14;13.00;99.90
41678;DHT22;27364;49.026;8.712;2023-06-14T03:26:41;13.10;99.90
41678;DHT22;27364;49.026;8.712;2023-06-14T03:29:07;13.10;99.90
41678;DHT22;27364;49.026;8.712;2023-06-14T03:31:34;13.10;99.90
41678;DHT22;27364;49.026;8.712;2023-06-14T03:34:03;13.10;99.90
41678;DHT22;27364;49.026;8.712;2023-06-14T03:36:28;13.10;99.90
41678;DHT22;27364;49.026;8.712;2023-06-14T03:38:54;13.10;99.90
41678;DHT22;27364;49.026;8.712;2023-06-14T03:41:20;13.00;99.70
41678;DHT22;27364;49.026;8.712;2023-06-14T03:43:46;13.10;99.90
41678;DHT22;27364;49.026;8.712;2023-06-14T03:46:12;13.10;99.60
41678;DHT22;27364;49.026;8.712;2023-06-14T03:48:37;13.10;99.30
41678;DHT22;27364;49.026;8.712;2023-06-14T03:51:04;12.90;99.20
41678;DHT22;27364;49.026;8.712;2023-06-14T03:53:30;12.90;99.90
41678;DHT22;27364;49.026;8.712;2023-06-14T03:55:56;13.00;99.90
41678;DHT22;27364;49.026;8.712;2023-06-14T03:58:22;13.00;99.90
41678;DHT22;27364;49.026;8.712;2023-06-14T04:00:48;12.90;99.90
41678;DHT22;27364;49.026;8.712;2023-06-14T04:03:13;13.00;99.90
41678;DHT22;27364;49.026;8.712;2023-06-14T04:05:41;12.90;99.90
41678;DHT22;27364;49.026;8.712;2023-06-14T04:08:09;12.80;99.90
41678;DHT22;27364;49.026;8.712;2023-06-14T04:10:35;12.60;99.90
41678;DHT22;27364;49.026;8.712;2023-06-14T04:13:01;12.50;99.90
41678;DHT22;27364;49.026;8.712;2023-06-14T04:15:26;12.50;99.90
41678;DHT22;27364;49.026;8.712;2023-06-14T04:17:54;12.50;99.90
41678;DHT22;27364;49.026;8.712;2023-06-14T04:20:23;12.50;99.90
41678;DHT22;27364;49.026;8.712;2023-06-14T04:22:50;12.50;99.90
41678;DHT22;27364;49.026;8.712;2023-06-14T04:25:16;12.50;99.90
41678;DHT22;27364;49.026;8.712;2023-06-14T04:27:42;12.60;99.90
41678;DHT22;27364;49.026;8.712;2023-06-14T04:30:09;12.70;99.90
41678;DHT22;27364;49.026;8.712;2023-06-14T04:32:35;12.70;99.90
41678;DHT22;27364;49.026;8.712;2023-06-14T04:35:04;12.70;99.90
41678;DHT22;27364;49.026;8.712;2023-06-14T04:37:30;12.80;99.90
41678;DHT22;27364;49.026;8.712;2023-06-14T04:39:56;12.80;99.90
41678;DHT22;27364;49.026;8.712;2023-06-14T04:42:22;12.80;99.90
41678;DHT22;27364;49.026;8.712;2023-06-14T04:44:50;12.80;99.90
41678;DHT22;27364;49.026;8.712;2023-06-14T04:47:17;12.90;99.90
41678;DHT22;27364;49.026;8.712;2023-06-14T04:49:42;12.90;99.90
41678;DHT22;27364;49.026;8.712;2023-06-14T04:52:08;13.00;99.90
41678;DHT22;27364;49.026;8.712;2023-06-14T04:54:36;13.00;99.90
41678;DHT22;27364;49.026;8.712;2023-06-14T04:57:04;13.10;99.90
41678;DHT22;27364;49.026;8.712;2023-06-14T04:59:30;13.10;99.90
41678;DHT22;27364;49.026;8.712;2023-06-14T05:01:59;13.20;99.90
41678;DHT22;27364;49.026;8.712;2023-06-14T05:04:25;13.20;99.90
41678;DHT22;27364;49.026;8.712;2023-06-14T05:06:52;13.20;99.90
41678;DHT22;27364;49.026;8.712;2023-06-14T05:09:20;13.20;99.90
41678;DHT22;27364;49.026;8.712;2023-06-14T05:11:46;13.30;99.90
41678;DHT22;27364;49.026;8.712;2023-06-14T05:14:13;13.40;99.90
41678;DHT22;27364;49.026;8.712;2023-06-14T05:16:39;13.30;99.90
41678;DHT22;27364;49.026;8.712;2023-06-14T05:19:06;13.50;99.90
41678;DHT22;27364;49.026;8.712;2023-06-14T05:21:31;13.60;99.90
41678;DHT22;27364;49.026;8.712;2023-06-14T05:24:00;13.60;99.90
41678;DHT22;27364;49.026;8.712;2023-06-14T05:26:26;13.90;99.90
41678;DHT22;27364;49.026;8.712;2023-06-14T05:28:58;14.10;99.90
41678;DHT22;27364;49.026;8.712;2023-06-14T05:31:26;14.30;99.90
41678;DHT22;27364;49.026;8.712;2023-06-14T05:33:52;14.50;99.90
41678;DHT22;27364;49.026;8.712;2023-06-14T05:36:19;14.70;99.90
41678;DHT22;27364;49.026;8.712;2023-06-14T05:38:45;14.90;99.20
41678;DHT22;27364;49.026;8.712;2023-06-14T05:41:11;15.00;99.00
41678;DHT22;27364;49.026;8.712;2023-06-14T05:43:36;15.20;98.30
41678;DHT22;27364;49.026;8.712;2023-06-14T05:46:02;15.30;97.80
41678;DHT22;27364;49.026;8.712;2023-06-14T05:48:28;15.50;98.10
41678;DHT22;27364;49.026;8.712;2023-06-14T05:50:54;15.50;97.30
41678;DHT22;27364;49.026;8.712;2023-06-14T05:53:19;15.60;97.30
41678;DHT22;27364;49.026;8.712;2023-06-14T05:55:45;15.70;97.10
41678;DHT22;27364;49.026;8.712;2023-06-14T05:58:10;15.80;96.80
41678;DHT22;27364;49.026;8.712;2023-06-14T06:00:36;15.80;96.40
41678;DHT22;27364;49.026;8.712;2023-06-14T06:03:02;15.90;96.10
41678;DHT22;27364;49.026;8.712;2023-06-14T06:05:27;16.00;95.80
41678;DHT22;27364;49.026;8.712;2023-06-14T06:07:53;16.10;96.40
41678;DHT22;27364;49.026;8.712;2023-06-14T06:10:18;16.10;96.00
41678;DHT22;27364;49.026;8.712;2023-06-14T06:12:44;16.20;95.80
41678;DHT22;27364;49.026;8.712;2023-06-14T06:15:10;16.30;95.40
41678;DHT22;27364;49.026;8.712;2023-06-14T06:17:38;16.30;95.50
41678;DHT22;27364;49.026;8.712;2023-06-14T06:20:04;16.40;94.80
41678;DHT22;27364;49.026;8.712;2023-06-14T06:22:31;16.50;95.00
41678;DHT22;27364;49.026;8.712;2023-06-14T06:24:57;16.60;94.10
41678;DHT22;27364;49.026;8.712;2023-06-14T06:27:22;16.70;93.80
41678;DHT22;27364;49.026;8.712;2023-06-14T06:29:48;16.70;92.80
41678;DHT22;27364;49.026;8.712;2023-06-14T06:32:14;16.80;92.30
41678;DHT22;27364;49.026;8.712;2023-06-14T06:34:40;16.80;92.80
41678;DHT22;27364;49.026;8.712;2023-06-14T06:37:06;16.90;92.50
41678;DHT22;27364;49.026;8.712;2023-06-14T06:39:31;16.90;92.30
41678;DHT22;27364;49.026;8.712;2023-06-14T06:41:57;17.00;91.70
41678;DHT22;27364;49.026;8.712;2023-06-14T06:44:23;17.10;91.60
41678;DHT22;27364;49.026;8.712;2023-06-14T06:46:48;17.10;91.50
41678;DHT22;27364;49.026;8.712;2023-06-14T06:49:14;17.20;90.60
41678;DHT22;27364;49.026;8.712;2023-06-14T06:51:43;17.30;91.40
41678;DHT22;27364;49.026;8.712;2023-06-14T06:54:10;17.40;91.60
41678;DHT22;27364;49.026;8.712;2023-06-14T06:56:36;17.50;90.30
41678;DHT22;27364;49.026;8.712;2023-06-14T06:59:01;17.50;90.50
41678;DHT22;27364;49.026;8.712;2023-06-14T07:01:27;17.60;90.80
41678;DHT22;27364;49.026;8.712;2023-06-14T07:03:54;17.70;89.60
41678;DHT22;27364;49.026;8.712;2023-06-14T07:06:20;17.80;90.00
41678;DHT22;27364;49.026;8.712;2023-06-14T07:08:46;17.80;89.60
41678;DHT22;27364;49.026;8.712;2023-06-14T07:11:13;17.90;89.20
41678;DHT22;27364;49.026;8.712;2023-06-14T07:13:39;18.00;88.00
41678;DHT22;27364;49.026;8.712;2023-06-14T07:16:05;18.10;87.60
41678;DHT22;27364;49.026;8.712;2023-06-14T07:18:31;18.20;88.80
41678;DHT22;27364;49.026;8.712;2023-06-14T07:20:56;18.30;89.80
41678;DHT22;27364;49.026;8.712;2023-06-14T07:23:23;18.30;87.90
41678;DHT22;27364;49.026;8.712;2023-06-14T07:25:48;18.40;87.90
41678;DHT22;27364;49.026;8.712;2023-06-14T07:28:14;18.50;89.00
41678;DHT22;27364;49.026;8.712;2023-06-14T07:30:40;18.50;88.90
41678;DHT22;27364;49.026;8.712;2023-06-14T07:33:05;18.60;87.20
41678;DHT22;27364;49.026;8.712;2023-06-14T07:35:31;18.60;87.00
41678;DHT22;27364;49.026;8.712;2023-06-14T07:37:56;18.70;85.80
41678;DHT22;27364;49.026;8.712;2023-06-14T07:40:22;18.70;85.90
41678;DHT22;27364;49.026;8.712;2023-06-14T07:42:47;18.80;86.90
41678;DHT22;27364;49.026;8.712;2023-06-14T07:45:15;18.80;85.30
41678;DHT22;27364;49.026;8.712;2023-06-14T07:47:41;18.90;86.80
41678;DHT22;27364;49.026;8.712;2023-06-14T07:50:07;18.90;85.30
41678;DHT22;27364;49.026;8.712;2023-06-14T07:52:33;18.90;85.30
41678;DHT22;27364;49.026;8.712;2023-06-14T07:54:58;19.00;84.50
41678;DHT22;27364;49.026;8.712;2023-06-14T07:57:24;19.10;84.50
41678;DHT22;27364;49.026;8.712;2023-06-14T07:59:49;19.10;85.60
41678;DHT22;27364;49.026;8.712;2023-06-14T08:02:15;19.10;82.80
41678;DHT22;27364;49.026;8.712;2023-06-14T08:04:40;19.20;82.50
41678;DHT22;27364;49.026;8.712;2023-06-14T08:07:07;19.30;82.70
41678;DHT22;27364;49.026;8.712;2023-06-14T08:09:33;19.40;83.00
41678;DHT22;27364;49.026;8.712;2023-06-14T08:11:58;19.40;81.80
41678;DHT22;27364;49.026;8.712;2023-06-14T08:14:24;19.50;79.90
41678;DHT22;27364;49.026;8.712;2023-06-14T08:16:49;19.60;79.60
41678;DHT22;27364;49.026;8.712;2023-06-14T08:19:15;19.70;81.00
41678;DHT22;27364;49.026;8.712;2023-06-14T08:21:42;19.70;79.50
41678;DHT22;27364;49.026;8.712;2023-06-14T08:24:10;19.80;79.00
41678;DHT22;27364;49.026;8.712;2023-06-14T08:26:38;19.80;76.60
41678;DHT22;27364;49.026;8.712;2023-06-14T08:29:03;19.90;78.50
41678;DHT22;27364;49.026;8.712;2023-06-14T08:31:29;20.00;79.00
41678;DHT22;27364;49.026;8.712;2023-06-14T08:33:57;20.20;78.00
41678;DHT22;27364;49.026;8.712;2023-06-14T08:36:22;20.20;78.90
41678;DHT22;27364;49.026;8.712;2023-06-14T08:38:48;20.30;77.10
41678;DHT22;27364;49.026;8.712;2023-06-14T08:41:20;20.40;76.70
41678;DHT22;27364;49.026;8.712;2023-06-14T08:43:46;20.50;76.70
41678;DHT22;27364;49.026;8.712;2023-06-14T08:46:12;20.60;76.20
41678;DHT22;27364;49.026;8.712;2023-06-14T08:48:44;20.70;76.40
41678;DHT22;27364;49.026;8.712;2023-06-14T08:51:10;20.90;74.60
41678;DHT22;27364;49.026;8.712;2023-06-14T08:53:37;21.00;75.40
41678;DHT22;27364;49.026;8.712;2023-06-14T08:56:08;21.10;74.70
41678;DHT22;27364;49.026;8.712;2023-06-14T08:58:42;21.20;74.70
41678;DHT22;27364;49.026;8.712;2023-06-14T09:01:11;21.30;73.80
41678;DHT22;27364;49.026;8.712;2023-06-14T09:03:40;21.40;72.40
41678;DHT22;27364;49.026;8.712;2023-06-14T09:06:07;21.50;70.60
41678;DHT22;27364;49.026;8.712;2023-06-14T09:08:34;21.50;70.20
41678;DHT22;27364;49.026;8.712;2023-06-14T09:11:01;21.60;70.40
41678;DHT22;27364;49.026;8.712;2023-06-14T09:13:27;21.70;68.60
41678;DHT22;27364;49.026;8.712;2023-06-14T09:15:53;21.80;68.50
41678;DHT22;27364;49.026;8.712;2023-06-14T09:18:19;21.90;70.20
41678;DHT22;27364;49.026;8.712;2023-06-14T09:20:47;22.10;66.90
41678;DHT22;27364;49.026;8.712;2023-06-14T09:23:13;22.30;66.10
41678;DHT22;27364;49.026;8.712;2023-06-14T09:25:46;22.40;64.70
41678;DHT22;27364;49.026;8.712;2023-06-14T09:28:12;22.40;65.20
41678;DHT22;27364;49.026;8.712;2023-06-14T09:30:38;22.50;67.00
41678;DHT22;27364;49.026;8.712;2023-06-14T09:33:03;22.50;65.60
41678;DHT22;27364;49.026;8.712;2023-06-14T09:35:31;22.50;64.40
41678;DHT22;27364;49.026;8.712;2023-06-14T09:37:57;22.60;65.00
41678;DHT22;27364;49.026;8.712;2023-06-14T09:40:23;22.70;65.40
41678;DHT22;27364;49.026;8.712;2023-06-14T09:42:49;22.80;65.40
41678;DHT22;27364;49.026;8.712;2023-06-14T09:45:15;22.90;63.50
41678;DHT22;27364;49.026;8.712;2023-06-14T09:47:49;23.10;64.80
41678;DHT22;27364;49.026;8.712;2023-06-14T09:50:14;23.20;62.20
41678;DHT22;27364;49.026;8.712;2023-06-14T09:52:43;23.40;62.40
41678;DHT22;27364;49.026;8.712;2023-06-14T09:55:12;23.40;61.10
41678;DHT22;27364;49.026;8.712;2023-06-14T09:57:41;23.50;60.40
41678;DHT22;27364;49.026;8.712;2023-06-14T10:00:08;23.60;60.50
41678;DHT22;27364;49.026;8.712;2023-06-14T10:02:37;23.70;60.10
41678;DHT22;27364;49.026;8.712;2023-06-14T10:05:05;23.70;59.40
41678;DHT22;27364;49.026;8.712;2023-06-14T10:08:05;23.80;57.40
41678;DHT22;27364;49.026;8.712;2023-06-14T10:10:33;23.90;57.20
41678;DHT22;27364;49.026;8.712;2023-06-14T10:12:59;23.90;57.50
41678;DHT22;27364;49.026;8.712;2023-06-14T10:15:36;23.90;58.40
41678;DHT22;27364;49.026;8.712;2023-06-14T10:20:42;24.20;57.90
41678;DHT22;27364;49.026;8.712;2023-06-14T10:23:15;24.20;57.10
41678;DHT22;27364;49.026;8.712;2023-06-14T10:25:43;24.20;55.40
41678;DHT22;27364;49.026;8.712;2023-06-14T10:28:19;24.20;54.70
41678;DHT22;27364;49.026;8.712;2023-06-14T10:31:09;24.30;56.30
41678;DHT22;27364;49.026;8.712;2023-06-14T10:33:56;24.20;54.70
41678;DHT22;27364;49.026;8.712;2023-06-14T10:39:04;24.00;54.10
41678;DHT22;27364;49.026;8.712;2023-06-14T10:41:31;24.30;54.50
41678;DHT22;27364;49.026;8.712;2023-06-14T10:46:38;24.50;52.80
41678;DHT22;27364;49.026;8.712;2023-06-14T10:49:03;24.50;52.10
41678;DHT22;27364;49.026;8.712;2023-06-14T10:51:38;24.30;50.70
41678;DHT22;27364;49.026;8.712;2023-06-14T10:54:12;24.50;52.50
41678;DHT22;27364;49.026;8.712;2023-06-14T10:56:52;24.50;52.60
41678;DHT22;27364;49.026;8.712;2023-06-14T10:59:19;24.80;54.30
41678;DHT22;27364;49.026;8.712;2023-06-14T11:04:11;25.20;51.60
41678;DHT22;27364;49.026;8.712;2023-06-14T11:06:50;25.20;51.80
41678;DHT22;27364;49.026;8.712;2023-06-14T11:12:21;25.40;51.20
41678;DHT22;27364;49.026;8.712;2023-06-14T11:14:47;25.30;51.70
41678;DHT22;27364;49.026;8.712;2023-06-14T11:17:15;25.10;51.30
41678;DHT22;27364;49.026;8.712;2023-06-14T11:19:41;24.80;51.10
41678;DHT22;27364;49.026;8.712;2023-06-14T11:22:06;24.70;52.90
41678;DHT22;27364;49.026;8.712;2023-06-14T11:24:33;24.70;50.20
41678;DHT22;27364;49.026;8.712;2023-06-14T11:26:58;24.80;48.60
41678;DHT22;27364;49.026;8.712;2023-06-14T11:29:24;24.90;49.00
41678;DHT22;27364;49.026;8.712;2023-06-14T11:31:50;24.80;50.80
41678;DHT22;27364;49.026;8.712;2023-06-14T11:34:17;24.70;50.80
41678;DHT22;27364;49.026;8.712;2023-06-14T11:36:43;24.60;50.80
41678;DHT22;27364;49.026;8.712;2023-06-14T11:39:08;24.70;51.00
41678;DHT22;27364;49.026;8.712;2023-06-14T11:41:52;25.00;49.70
41678;DHT22;27364;49.026;8.712;2023-06-14T11:44:18;25.20;48.70
41678;DHT22;27364;49.026;8.712;2023-06-14T11:46:44;25.50;50.40
41678;DHT22;27364;49.026;8.712;2023-06-14T11:49:10;25.70;50.40
41678;DHT22;27364;49.026;8.712;2023-06-14T11:51:36;25.90;50.70
41678;DHT22;27364;49.026;8.712;2023-06-14T11:54:03;26.10;49.20
41678;DHT22;27364;49.026;8.712;2023-06-14T11:56:32;26.00;47.30
41678;DHT22;27364;49.026;8.712;2023-06-14T11:58:58;25.60;48.00
41678;DHT22;27364;49.026;8.712;2023-06-14T12:01:23;25.40;45.50
41678;DHT22;27364;49.026;8.712;2023-06-14T12:03:50;25.60;49.80
41678;DHT22;27364;49.026;8.712;2023-06-14T12:06:15;25.60;48.70
41678;DHT22;27364;49.026;8.712;2023-06-14T12:08:43;26.00;51.50
41678;DHT22;27364;49.026;8.712;2023-06-14T12:11:11;26.10;47.70
41678;DHT22;27364;49.026;8.712;2023-06-14T12:13:43;25.90;47.90
41678;DHT22;27364;49.026;8.712;2023-06-14T12:16:10;25.60;47.60
41678;DHT22;27364;49.026;8.712;2023-06-14T12:18:38;25.60;48.10
41678;DHT22;27364;49.026;8.712;2023-06-14T12:21:05;25.80;47.50
41678;DHT22;27364;49.026;8.712;2023-06-14T12:23:48;26.00;48.00
41678;DHT22;27364;49.026;8.712;2023-06-14T12:26:19;26.40;47.90
41678;DHT22;27364;49.026;8.712;2023-06-14T12:28:45;26.40;47.20
41678;DHT22;27364;49.026;8.712;2023-06-14T12:31:12;26.50;48.90
41678;DHT22;27364;49.026;8.712;2023-06-14T12:33:39;26.50;46.80
41678;DHT22;27364;49.026;8.712;2023-06-14T12:36:05;26.20;45.00
41678;DHT22;27364;49.026;8.712;2023-06-14T12:38:35;26.00;48.00
41678;DHT22;27364;49.026;8.712;2023-06-14T12:41:00;25.90;47.20
41678;DHT22;27364;49.026;8.712;2023-06-14T12:43:27;25.90;48.70
41678;DHT22;27364;49.026;8.712;2023-06-14T12:45:53;26.30;48.60
41678;DHT22;27364;49.026;8.712;2023-06-14T12:48:19;26.40;48.60
41678;DHT22;27364;49.026;8.712;2023-06-14T12:50:45;26.40;47.10
41678;DHT22;27364;49.026;8.712;2023-06-14T12:53:10;26.20;46.40
41678;DHT22;27364;49.026;8.712;2023-06-14T12:55:36;26.30;45.90
41678;DHT22;27364;49.026;8.712;2023-06-14T12:58:02;26.40;46.10
41678;DHT22;27364;49.026;8.712;2023-06-14T13:00:27;26.40;45.20
41678;DHT22;27364;49.026;8.712;2023-06-14T13:02:55;26.50;46.00
41678;DHT22;27364;49.026;8.712;2023-06-14T13:05:21;26.60;45.40
41678;DHT22;27364;49.026;8.712;2023-06-14T13:07:46;26.80;46.20
41678;DHT22;27364;49.026;8.712;2023-06-14T13:10:12;26.80;46.20
41678;DHT22;27364;49.026;8.712;2023-06-14T13:12:37;26.90;46.80
41678;DHT22;27364;49.026;8.712;2023-06-14T13:15:04;26.60;45.40
41678;DHT22;27364;49.026;8.712;2023-06-14T13:17:30;26.40;45.40
41678;DHT22;27364;49.026;8.712;2023-06-14T13:19:58;26.10;44.60
41678;DHT22;27364;49.026;8.712;2023-06-14T13:22:25;26.30;45.80
41678;DHT22;27364;49.026;8.712;2023-06-14T13:24:50;26.50;43.50
41678;DHT22;27364;49.026;8.712;2023-06-14T13:27:16;26.50;42.60
41678;DHT22;27364;49.026;8.712;2023-06-14T13:29:42;26.70;44.20
41678;DHT22;27364;49.026;8.712;2023-06-14T13:32:07;26.80;45.00
41678;DHT22;27364;49.026;8.712;2023-06-14T13:34:33;26.90;45.20
41678;DHT22;27364;49.026;8.712;2023-06-14T13:36:58;27.00;44.60
41678;DHT22;27364;49.026;8.712;2023-06-14T13:39:25;27.20;43.20
41678;DHT22;27364;49.026;8.712;2023-06-14T13:41:50;27.10;42.50
41678;DHT22;27364;49.026;8.712;2023-06-14T13:44:16;26.90;42.60
41678;DHT22;27364;49.026;8.712;2023-06-14T13:46:44;26.60;43.00
41678;DHT22;27364;49.026;8.712;2023-06-14T13:49:10;26.30;44.90
41678;DHT22;27364;49.026;8.712;2023-06-14T13:51:37;26.10;44.00
41678;DHT22;27364;49.026;8.712;2023-06-14T13:54:03;26.00;44.70
41678;DHT22;27364;49.026;8.712;2023-06-14T13:56:28;26.10;46.70
41678;DHT22;27364;49.026;8.712;2023-06-14T13:58:55;26.20;46.70
41678;DHT22;27364;49.026;8.712;2023-06-14T14:01:21;26.40;44.20
41678;DHT22;27364;49.026;8.712;2023-06-14T14:03:48;26.40;42.90
41678;DHT22;27364;49.026;8.712;2023-06-14T14:06:15;26.50;44.20
41678;DHT22;27364;49.026;8.712;2023-06-14T14:08:41;26.70;45.50
41678;DHT22;27364;49.026;8.712;2023-06-14T14:11:07;26.90;43.20
41678;DHT22;27364;49.026;8.712;2023-06-14T14:13:33;27.10;41.40
41678;DHT22;27364;49.026;8.712;2023-06-14T14:16:01;26.90;40.00
41678;DHT22;27364;49.026;8.712;2023-06-14T14:18:27;26.90;43.50
41678;DHT22;27364;49.026;8.712;2023-06-14T14:20:52;27.20;42.90
41678;DHT22;27364;49.026;8.712;2023-06-14T14:23:18;27.40;41.80
41678;DHT22;27364;49.026;8.712;2023-06-14T14:25:45;27.70;43.20
41678;DHT22;27364;49.026;8.712;2023-06-14T14:28:10;28.00;41.90
41678;DHT22;27364;49.026;8.712;2023-06-14T14:30:36;28.10;43.60
41678;DHT22;27364;49.026;8.712;2023-06-14T14:33:05;28.30;43.50
41678;DHT22;27364;49.026;8.712;2023-06-14T14:35:32;28.30;43.00
41678;DHT22;27364;49.026;8.712;2023-06-14T14:37:57;28.30;42.30
41678;DHT22;27364;49.026;8.712;2023-06-14T14:40:23;28.30;41.00
41678;DHT22;27364;49.026;8.712;2023-06-14T14:42:49;28.40;42.90
41678;DHT22;27364;49.026;8.712;2023-06-14T14:45:15;28.30;40.40
41678;DHT22;27364;49.026;8.712;2023-06-14T14:47:40;28.20;42.40
41678;DHT22;27364;49.026;8.712;2023-06-14T14:50:06;28.10;41.50
41678;DHT22;27364;49.026;8.712;2023-06-14T14:52:35;27.90;43.10
41678;DHT22;27364;49.026;8.712;2023-06-14T14:55:00;27.80;42.00
41678;DHT22;27364;49.026;8.712;2023-06-14T14:57:26;27.70;42.60
41678;DHT22;27364;49.026;8.712;2023-06-14T14:59:52;27.70;43.20
41678;DHT22;27364;49.026;8.712;2023-06-14T15:02:18;27.60;41.70
41678;DHT22;27364;49.026;8.712;2023-06-14T15:04:44;27.50;42.80
41678;DHT22;27364;49.026;8.712;2023-06-14T15:07:10;27.40;44.10
41678;DHT22;27364;49.026;8.712;2023-06-14T15:09:35;27.40;43.80
41678;DHT22;27364;49.026;8.712;2023-06-14T15:12:01;27.30;43.20
41678;DHT22;27364;49.026;8.712;2023-06-14T15:14:28;27.10;42.80
41678;DHT22;27364;49.026;8.712;2023-06-14T15:16:53;26.80;41.80
41678;DHT22;27364;49.026;8.712;2023-06-14T15:19:19;26.70;42.70
41678;DHT22;27364;49.026;8.712;2023-06-14T15:21:44;26.60;42.50
41678;DHT22;27364;49.026;8.712;2023-06-14T15:24:10;26.60;43.80
41678;DHT22;27364;49.026;8.712;2023-06-14T15:26:35;26.40;42.70
41678;DHT22;27364;49.026;8.712;2023-06-14T15:29:01;26.20;43.60
41678;DHT22;27364;49.026;8.712;2023-06-14T15:31:26;26.00;42.70
41678;DHT22;27364;49.026;8.712;2023-06-14T15:33:54;25.80;43.10
41678;DHT22;27364;49.026;8.712;2023-06-14T15:36:19;25.80;43.40
41678;DHT22;27364;49.026;8.712;2023-06-14T15:38:45;25.70;44.60
41678;DHT22;27364;49.026;8.712;2023-06-14T15:41:11;25.70;44.70
41678;DHT22;27364;49.026;8.712;2023-06-14T15:43:36;25.70;44.90